Time;durP1;ratioP1;P1;durP2;ratioP2;P2;SDS_P1;SDS_P2;PMS_P1;PMS_P2;Temp;Humidity;BMP_temperature;BMP_pressure;BME280_temperature;BME280_humidity;BME280_pressure;Samples;Min_cycle;Max_cycle;Signal;HPM_P1;HPM_P2
2022/09/05 00:02:01;;;;;;;12.40;6.95;;;;;;;;;;4986654;28;20514;-73
2022/09/05 00:05:08;;;;;;;13.68;7.18;;;;;;;;;;5001826;28;20394;-73
2022/09/05 00:08:19;;;;;;;12.95;6.45;;;;;;;;;;4991336;28;20038;-73
2022/09/05 00:11:26;;;;;;;9.07;6.77;;;;;;;;;;4991469;28;20042;-73
2022/09/05 00:14:45;;;;;;;41.05;13.98;;;;;;;;;;4991478;28;20031;-73
2022/09/05 00:18:05;;;;;;;20.63;8.32;;;;;;;;;;4993785;28;20049;-73
2022/09/05 00:21:31;;;;;;;14.52;7.15;;;;;;;;;;4995587;28;20050;-73
2022/09/05 00:24:48;;;;;;;14.88;6.43;;;;;;;;;;4995979;28;20038;-73
2022/09/05 00:27:52;;;;;;;15.38;7.40;;;;;;;;;;4994394;28;20073;-73
2022/09/05 00:31:29;;;;;;;12.65;7.60;;;;;;;;;;4995615;28;20045;-73
2022/09/05 00:34:33;;;;;;;12.23;6.78;;;;;;;;;;4999915;28;20050;-73
2022/09/05 00:37:40;;;;;;;16.38;7.97;;;;;;;;;;4995564;28;20054;-72
2022/09/05 00:40:49;;;;;;;13.13;7.10;;;;;;;;;;4995286;28;20038;-73
2022/09/05 00:43:53;;;;;;;18.45;7.53;;;;;;;;;;4995213;28;20038;-73
2022/09/05 00:47:08;;;;;;;15.15;6.53;;;;;;;;;;4995020;28;20399;-72
2022/09/05 00:50:30;;;;;;;14.38;7.07;;;;;;;;;;4994929;28;20045;-73
2022/09/05 00:53:49;;;;;;;14.95;7.35;;;;;;;;;;4994847;28;20049;-73
2022/09/05 00:56:57;;;;;;;10.98;6.70;;;;;;;;;;4994222;28;20406;-73
2022/09/05 01:00:07;;;;;;;15.70;8.07;;;;;;;;;;4995453;28;20034;-73
2022/09/05 01:03:20;;;;;;;14.70;7.97;;;;;;;;;;4994006;28;20037;-73
2022/09/05 01:06:54;;;;;;;17.08;6.88;;;;;;;;;;4994813;28;20046;-73
2022/09/05 01:10:02;;;;;;;11.43;6.93;;;;;;;;;;4995015;28;20216;-73
2022/09/05 01:13:25;;;;;;;17.85;7.43;;;;;;;;;;5005204;28;20046;-73
2022/09/05 01:16:35;;;;;;;17.13;7.32;;;;;;;;;;4994684;28;20045;-73
2022/09/05 01:19:58;;;;;;;13.27;6.97;;;;;;;;;;4994810;28;20065;-73
2022/09/05 01:23:15;;;;;;;11.57;7.78;;;;;;;;;;4994167;28;20053;-73
2022/09/05 01:26:23;;;;;;;14.25;7.68;;;;;;;;;;4994658;28;20063;-73
2022/09/05 01:29:34;;;;;;;16.05;7.30;;;;;;;;;;4993119;28;20042;-73
2022/09/05 01:32:44;;;;;;;10.55;7.20;;;;;;;;;;4994365;28;20045;-73
2022/09/05 01:36:06;;;;;;;14.70;7.68;;;;;;;;;;4994371;28;20482;-73
2022/09/05 01:39:27;;;;;;;13.57;7.35;;;;;;;;;;4994030;28;20052;-72
2022/09/05 01:42:40;;;;;;;16.92;7.32;;;;;;;;;;4994156;28;20061;-73
2022/09/05 01:45:54;;;;;;;13.55;7.75;;;;;;;;;;4994221;28;20053;-73
2022/09/05 01:49:07;;;;;;;14.40;7.30;;;;;;;;;;4994134;28;20050;-73
2022/09/05 01:52:14;;;;;;;16.63;7.88;;;;;;;;;;4993997;28;20038;-73
2022/09/05 01:55:31;;;;;;;16.52;7.82;;;;;;;;;;4994148;28;20042;-73
2022/09/05 01:58:51;;;;;;;18.67;8.57;;;;;;;;;;4994011;28;20042;-73
2022/09/05 02:02:02;;;;;;;12.38;7.88;;;;;;;;;;4993177;28;20046;-73
2022/09/05 02:05:23;;;;;;;14.77;7.60;;;;;;;;;;4993648;28;20042;-72
2022/09/05 02:08:47;;;;;;;11.85;6.93;;;;;;;;;;4993916;28;20793;-73
2022/09/05 02:11:59;;;;;;;17.92;7.50;;;;;;;;;;4992752;28;20403;-73
2022/09/05 02:15:06;;;;;;;17.75;6.88;;;;;;;;;;4993830;28;20059;-73
2022/09/05 02:18:19;;;;;;;11.25;6.82;;;;;;;;;;5004155;28;20124;-73
2022/09/05 02:21:23;;;;;;;13.95;6.97;;;;;;;;;;4992427;28;20041;-72
2022/09/05 02:24:27;;;;;;;12.40;7.35;;;;;;;;;;5003922;28;20422;-72
2022/09/05 02:27:42;;;;;;;12.15;7.28;;;;;;;;;;4993107;28;20039;-73
2022/09/05 02:30:52;;;;;;;16.88;7.47;;;;;;;;;;4993482;28;20399;-73
2022/09/05 02:34:06;;;;;;;15.13;7.50;;;;;;;;;;5003894;28;20050;-73
2022/09/05 02:37:30;;;;;;;19.65;8.25;;;;;;;;;;4981136;28;20047;-73
2022/09/05 02:40:53;;;;;;;12.25;7.47;;;;;;;;;;4996927;28;20053;-73
2022/09/05 02:44:08;;;;;;;16.17;7.78;;;;;;;;;;4992226;28;20049;-73
2022/09/05 02:47:22;;;;;;;14.27;8.05;;;;;;;;;;4992847;28;20046;-73
2022/09/05 02:50:45;;;;;;;17.98;6.93;;;;;;;;;;5003341;28;20034;-73
2022/09/05 02:53:54;;;;;;;13.48;7.10;;;;;;;;;;4992911;28;20046;-73
2022/09/05 02:56:58;;;;;;;11.77;7.13;;;;;;;;;;4992932;28;20038;-73
2022/09/05 03:00:02;;;;;;;12.82;6.55;;;;;;;;;;4992851;28;20038;-72
2022/09/05 03:03:07;;;;;;;14.52;6.93;;;;;;;;;;5003117;28;20398;-73
2022/09/05 03:06:20;;;;;;;11.15;6.82;;;;;;;;;;5003302;28;20038;-73
2022/09/05 03:09:24;;;;;;;13.23;6.95;;;;;;;;;;4992468;28;20508;-73
2022/09/05 03:12:28;;;;;;;22.65;7.68;;;;;;;;;;4992191;28;20030;-73
2022/09/05 03:15:51;;;;;;;12.90;7.32;;;;;;;;;;4992679;28;20037;-73
2022/09/05 03:19:04;;;;;;;10.77;6.63;;;;;;;;;;4992335;28;20054;-72
2022/09/05 03:22:27;;;;;;;12.13;6.43;;;;;;;;;;4992199;28;20042;-73
2022/09/05 03:25:51;;;;;;;12.40;6.80;;;;;;;;;;4992365;28;20050;-72
2022/09/05 03:29:02;;;;;;;11.55;7.13;;;;;;;;;;5003010;28;20054;-73
2022/09/05 03:32:26;;;;;;;14.05;6.55;;;;;;;;;;4992340;28;20112;-72
2022/09/05 03:35:46;;;;;;;13.40;6.75;;;;;;;;;;4992248;28;20526;-73
2022/09/05 03:38:53;;;;;;;12.35;6.25;;;;;;;;;;4992357;28;20034;-73
2022/09/05 03:42:03;;;;;;;14.23;6.47;;;;;;;;;;4992414;28;20042;-73
2022/09/05 03:45:29;;;;;;;16.92;7.03;;;;;;;;;;4991849;28;20038;-73
2022/09/05 03:48:49;;;;;;;13.02;6.40;;;;;;;;;;4992991;28;20053;-73
2022/09/05 03:52:12;;;;;;;8.63;6.65;;;;;;;;;;5002016;28;20050;-73
2022/09/05 03:55:19;;;;;;;16.08;6.90;;;;;;;;;;4992089;28;20145;-73
2022/09/05 03:58:42;;;;;;;11.35;6.78;;;;;;;;;;5002496;28;20038;-73
2022/09/05 04:01:50;;;;;;;12.65;7.38;;;;;;;;;;4991851;28;20054;-73
2022/09/05 04:05:12;;;;;;;12.70;6.95;;;;;;;;;;4990773;28;20431;-73
2022/09/05 04:08:28;;;;;;;13.07;7.25;;;;;;;;;;4991780;28;20046;-73
2022/09/05 04:11:38;;;;;;;11.45;6.55;;;;;;;;;;4991730;28;20054;-72
2022/09/05 04:14:52;;;;;;;10.27;6.60;;;;;;;;;;4991883;28;20046;-73
2022/09/05 04:17:58;;;;;;;14.13;6.95;;;;;;;;;;5001753;28;20054;-73
2022/09/05 04:21:06;;;;;;;15.07;7.93;;;;;;;;;;4991767;28;20046;-73
2022/09/05 04:24:19;;;;;;;14.05;7.78;;;;;;;;;;5002090;28;20044;-73
2022/09/05 04:27:29;;;;;;;10.88;6.97;;;;;;;;;;4991235;28;20045;-72
2022/09/05 04:30:47;;;;;;;13.88;7.07;;;;;;;;;;5001751;28;20042;-72
2022/09/05 04:33:54;;;;;;;11.90;6.40;;;;;;;;;;4991500;28;20055;-72
2022/09/05 04:37:06;;;;;;;10.13;6.40;;;;;;;;;;4991688;28;20046;-72
2022/09/05 04:40:29;;;;;;;8.35;6.43;;;;;;;;;;4991710;28;20043;-72
2022/09/05 04:43:54;;;;;;;9.60;6.38;;;;;;;;;;4991402;28;20042;-72
2022/09/05 04:47:01;;;;;;;13.73;6.90;;;;;;;;;;4992552;28;20050;-72
2022/09/05 04:50:08;;;;;;;14.65;6.07;;;;;;;;;;4991361;28;20049;-72
2022/09/05 04:53:29;;;;;;;10.10;6.15;;;;;;;;;;4991464;28;20054;-73
2022/09/05 04:56:37;;;;;;;8.32;6.35;;;;;;;;;;4991373;28;20046;-72
2022/09/05 05:00:00;;;;;;;16.77;6.93;;;;;;;;;;4991392;28;20050;-72
2022/09/05 05:03:11;;;;;;;23.55;8.98;;;;;;;;;;4992105;28;20046;-73
2022/09/05 05:06:16;;;;;;;;;;;;;;;;;;4994468;28;20141;-72
2022/09/05 05:09:34;;;;;;;30.88;8.57;;;;;;;;;;4994904;28;19924;-72
2022/09/05 05:12:47;;;;;;;12.30;6.55;;;;;;;;;;4994839;28;20034;-72
2022/09/05 05:15:55;;;;;;;8.27;6.40;;;;;;;;;;4994854;28;20038;-72
2022/09/05 05:19:01;;;;;;;10.82;6.50;;;;;;;;;;4993680;28;20076;-72
2022/09/05 05:22:12;;;;;;;13.15;7.10;;;;;;;;;;4993753;28;20153;-72
2022/09/05 05:25:17;;;;;;;14.48;7.15;;;;;;;;;;4994698;28;20046;-72
2022/09/05 05:28:21;;;;;;;9.98;6.13;;;;;;;;;;4994581;28;20050;-73
2022/09/05 05:31:28;;;;;;;13.95;6.30;;;;;;;;;;4994349;28;20035;-74
2022/09/05 05:34:34;;;;;;;15.55;7.97;;;;;;;;;;4994041;28;20046;-76
2022/09/05 05:37:44;;;;;;;20.60;6.13;;;;;;;;;;5004987;28;20071;-75
2022/09/05 05:41:04;;;;;;;17.65;6.43;;;;;;;;;;4994130;28;20045;-76
2022/09/05 05:44:12;;;;;;;14.65;6.03;;;;;;;;;;5004424;28;20049;-76
2022/09/05 05:47:19;;;;;;;13.68;7.43;;;;;;;;;;4993962;28;20057;-76
2022/09/05 05:50:35;;;;;;;12.23;6.50;;;;;;;;;;4993943;28;20051;-75
2022/09/05 05:53:52;;;;;;;15.93;7.00;;;;;;;;;;4993615;28;20034;-75
2022/09/05 05:57:05;;;;;;;16.40;6.60;;;;;;;;;;4993339;28;20133;-75
2022/09/05 06:00:18;;;;;;;18.27;6.80;;;;;;;;;;4993749;28;20042;-75
2022/09/05 06:03:25;;;;;;;11.82;6.07;;;;;;;;;;5004337;28;20038;-75
2022/09/05 06:06:42;;;;;;;11.82;5.80;;;;;;;;;;4993567;28;20050;-75
2022/09/05 06:09:46;;;;;;;16.02;6.03;;;;;;;;;;4992697;28;20039;-73
2022/09/05 06:13:01;;;;;;;14.65;6.80;;;;;;;;;;4993108;28;20398;-73
2022/09/05 06:16:05;;;;;;;9.80;5.53;;;;;;;;;;4992164;28;20038;-74
2022/09/05 06:19:12;;;;;;;12.23;5.80;;;;;;;;;;4993058;28;20042;-74
2022/09/05 06:22:17;;;;;;;11.95;5.63;;;;;;;;;;4993050;28;20042;-75
2022/09/05 06:25:27;;;;;;;10.63;5.70;;;;;;;;;;4993464;28;20489;-76
2022/09/05 06:28:40;;;;;;;15.33;5.43;;;;;;;;;;4992820;28;20418;-74
2022/09/05 06:31:51;;;;;;;13.48;5.05;;;;;;;;;;4993237;28;20282;-71
2022/09/05 06:35:05;;;;;;;12.35;4.80;;;;;;;;;;4993299;28;20049;-72
2022/09/05 06:38:38;;;;;;;12.32;4.80;;;;;;;;;;4992976;28;20043;-71
2022/09/05 06:41:49;;;;;;;15.35;4.85;;;;;;;;;;4992829;28;20049;-71
2022/09/05 06:44:53;;;;;;;;;;;;;;;;;;4993419;28;20034;-71
2022/09/05 06:48:16;;;;;;;8.27;4.22;;;;;;;;;;4992735;28;19928;-71
2022/09/05 06:51:30;;;;;;;13.45;5.05;;;;;;;;;;4992821;28;20042;-71
2022/09/05 06:54:53;;;;;;;12.15;4.53;;;;;;;;;;4992180;28;20042;-71
2022/09/05 06:58:16;;;;;;;7.35;4.60;;;;;;;;;;4991977;28;20053;-70
2022/09/05 07:01:29;;;;;;;10.07;4.70;;;;;;;;;;4992381;28;20042;-72
2022/09/05 07:04:36;;;;;;;9.48;4.28;;;;;;;;;;4992451;28;20038;-72
2022/09/05 07:07:46;;;;;;;6.63;3.47;;;;;;;;;;4992332;28;20038;-72
2022/09/05 07:10:57;;;;;;;5.83;3.60;;;;;;;;;;4991612;28;20046;-73
2022/09/05 07:14:09;;;;;;;7.38;3.67;;;;;;;;;;4992370;28;20042;-73
2022/09/05 07:17:17;;;;;;;13.73;3.58;;;;;;;;;;4992362;28;20046;-72
2022/09/05 07:20:23;;;;;;;8.00;3.60;;;;;;;;;;4992542;28;20034;-73
2022/09/05 07:23:49;;;;;;;11.00;3.50;;;;;;;;;;4992747;28;20038;-73
2022/09/05 07:26:54;;;;;;;23.73;5.93;;;;;;;;;;4992058;28;20053;-72
2022/09/05 07:29:59;;;;;;;11.82;3.35;;;;;;;;;;4991785;28;20042;-72
2022/09/05 07:33:03;;;;;;;11.65;3.20;;;;;;;;;;4992115;28;20041;-72
2022/09/05 07:36:14;;;;;;;8.40;3.40;;;;;;;;;;4991805;28;20050;-73
2022/09/05 07:39:23;;;;;;;19.80;4.10;;;;;;;;;;4991993;28;20042;-73
2022/09/05 07:42:35;;;;;;;5.93;2.70;;;;;;;;;;4991693;28;20503;-71
2022/09/05 07:45:44;;;;;;;9.10;3.08;;;;;;;;;;4991797;28;20042;-72
2022/09/05 07:48:54;;;;;;;9.98;3.08;;;;;;;;;;4991473;28;20395;-72
2022/09/05 07:52:01;;;;;;;9.07;2.75;;;;;;;;;;4991469;28;20038;-72
2022/09/05 07:55:12;;;;;;;10.93;2.97;;;;;;;;;;4991735;28;20039;-72
2022/09/05 07:58:20;;;;;;;6.40;2.58;;;;;;;;;;4992007;28;20042;-72
2022/09/05 08:01:24;;;;;;;24.73;3.33;;;;;;;;;;4991673;28;20475;-72
2022/09/05 08:04:28;;;;;;;7.20;2.08;;;;;;;;;;4991764;28;20047;-72
2022/09/05 08:07:34;;;;;;;5.28;2.53;;;;;;;;;;4991471;28;20050;-72
2022/09/05 08:10:44;;;;;;;4.88;2.05;;;;;;;;;;4991387;28;20050;-72
2022/09/05 08:13:58;;;;;;;6.40;1.90;;;;;;;;;;4991649;28;20038;-72
2022/09/05 08:17:05;;;;;;;5.00;2.13;;;;;;;;;;4991029;28;20043;-72
2022/09/05 08:20:23;;;;;;;5.28;2.25;;;;;;;;;;4991454;28;20030;-72
2022/09/05 08:23:46;;;;;;;8.63;2.28;;;;;;;;;;4991325;28;20042;-72
2022/09/05 08:27:03;;;;;;;8.18;2.47;;;;;;;;;;4991284;28;20039;-72
2022/09/05 08:30:09;;;;;;;3.85;1.95;;;;;;;;;;4990098;28;20046;-73
2022/09/05 08:33:18;;;;;;;5.63;2.35;;;;;;;;;;4991061;28;20031;-69
2022/09/05 08:36:28;;;;;;;5.22;2.08;;;;;;;;;;4991437;28;20042;-68
2022/09/05 08:39:33;;;;;;;9.60;3.25;;;;;;;;;;4995023;28;20470;-69
2022/09/05 08:42:47;;;;;;;7.70;2.85;;;;;;;;;;4994910;28;20558;-71
2022/09/05 08:45:58;;;;;;;6.43;2.63;;;;;;;;;;4995344;28;20506;-70
2022/09/05 08:49:02;;;;;;;5.03;2.25;;;;;;;;;;4994887;28;20046;-70
2022/09/05 08:52:06;;;;;;;4.60;2.08;;;;;;;;;;4994866;28;20038;-70
2022/09/05 08:55:19;;;;;;;5.22;2.00;;;;;;;;;;4994254;28;20046;-70
2022/09/05 08:58:29;;;;;;;3.88;1.80;;;;;;;;;;4993669;28;20038;-71
2022/09/05 09:01:40;;;;;;;6.35;1.95;;;;;;;;;;4994408;28;20391;-71
2022/09/05 09:04:49;;;;;;;3.72;1.77;;;;;;;;;;4994661;28;20138;-69
2022/09/05 09:07:59;;;;;;;4.05;1.40;;;;;;;;;;4994243;28;20054;-71
2022/09/05 09:11:16;;;;;;;4.03;1.83;;;;;;;;;;4994293;28;20053;-69
2022/09/05 09:14:38;;;;;;;4.25;1.60;;;;;;;;;;4994524;28;20042;-68
2022/09/05 09:17:44;;;;;;;2.60;1.77;;;;;;;;;;4994117;28;20054;-69
2022/09/05 09:20:48;;;;;;;3.75;1.83;;;;;;;;;;4994501;28;20383;-69
2022/09/05 09:23:57;;;;;;;2.80;1.60;;;;;;;;;;4994205;28;20038;-67
2022/09/05 09:27:04;;;;;;;4.65;1.70;;;;;;;;;;4994211;28;20030;-70
2022/09/05 09:30:09;;;;;;;5.38;1.75;;;;;;;;;;4994317;28;20058;-70
2022/09/05 09:33:19;;;;;;;6.60;1.77;;;;;;;;;;4994307;28;20035;-72
2022/09/05 09:36:32;;;;;;;3.63;1.80;;;;;;;;;;4994254;28;20034;-77
2022/09/05 09:39:55;;;;;;;6.65;1.80;;;;;;;;;;4993982;28;20042;-73
2022/09/05 09:43:13;;;;;;;3.67;1.65;;;;;;;;;;4993942;28;20038;-75
2022/09/05 09:46:21;;;;;;;5.53;2.13;;;;;;;;;;4993674;28;20046;-71
2022/09/05 09:49:43;;;;;;;3.90;1.92;;;;;;;;;;4992460;28;20058;-72
2022/09/05 09:52:56;;;;;;;16.17;2.13;;;;;;;;;;4994059;28;20046;-73
2022/09/05 09:56:16;;;;;;;7.63;2.30;;;;;;;;;;4993860;28;20038;-73
2022/09/05 09:59:28;;;;;;;8.60;2.05;;;;;;;;;;4993661;28;20042;-73
2022/09/05 10:03:00;;;;;;;4.18;2.13;;;;;;;;;;4993358;28;20043;-72
2022/09/05 10:06:14;;;;;;;6.72;1.52;;;;;;;;;;4992693;28;20030;-71
2022/09/05 10:09:21;;;;;;;7.57;1.73;;;;;;;;;;4993366;28;20050;-70
2022/09/05 10:12:41;;;;;;;3.88;1.80;;;;;;;;;;4993137;28;20034;-72
2022/09/05 10:15:55;;;;;;;8.23;2.27;;;;;;;;;;4994560;28;20046;-69
2022/09/05 10:19:00;;;;;;;3.17;1.58;;;;;;;;;;4993576;28;20046;-70
2022/09/05 10:22:14;;;;;;;3.67;1.80;;;;;;;;;;4993793;28;20046;-71
2022/09/05 10:25:37;;;;;;;4.22;1.63;;;;;;;;;;4993204;28;20038;-71
2022/09/05 10:28:54;;;;;;;4.72;1.90;;;;;;;;;;4993047;28;20142;-71
2022/09/05 10:32:12;;;;;;;5.72;1.65;;;;;;;;;;4992733;28;20042;-70
2022/09/05 10:35:19;;;;;;;4.65;1.80;;;;;;;;;;4992949;28;20038;-70
2022/09/05 10:38:34;;;;;;;6.80;1.77;;;;;;;;;;4993269;28;20046;-71
2022/09/05 10:41:54;;;;;;;2.55;1.60;;;;;;;;;;4992651;28;20039;-70
2022/09/05 10:44:58;;;;;;;4.75;1.90;;;;;;;;;;4992807;28;20387;-70
2022/09/05 10:48:11;;;;;;;5.97;1.45;;;;;;;;;;4992495;28;20042;-71
2022/09/05 10:51:18;;;;;;;3.92;1.52;;;;;;;;;;4992784;28;20046;-71
2022/09/05 10:54:27;;;;;;;4.20;1.75;;;;;;;;;;4992520;28;20293;-71
2022/09/05 10:57:50;;;;;;;4.00;1.75;;;;;;;;;;4992490;28;20038;-71
2022/09/05 11:01:13;;;;;;;3.50;1.90;;;;;;;;;;4992449;28;20026;-70
2022/09/05 11:04:36;;;;;;;3.40;1.35;;;;;;;;;;4992678;28;20046;-70
2022/09/05 11:08:00;;;;;;;5.30;1.70;;;;;;;;;;4992377;28;20054;-70
2022/09/05 11:11:13;;;;;;;5.60;1.70;;;;;;;;;;4992314;28;20396;-70
2022/09/05 11:14:19;;;;;;;3.13;1.65;;;;;;;;;;4992446;28;20046;-70
2022/09/05 11:17:30;;;;;;;7.22;1.40;;;;;;;;;;4991803;28;20038;-70
2022/09/05 11:20:40;;;;;;;3.45;1.60;;;;;;;;;;4992206;28;20046;-70
2022/09/05 11:23:44;;;;;;;;;;;;;;;;;;4992736;28;20042;-70
2022/09/05 11:26:58;;;;;;;5.15;1.75;;;;;;;;;;4992545;28;19917;-71
2022/09/05 11:30:12;;;;;;;2.72;1.52;;;;;;;;;;4991831;28;20297;-70
2022/09/05 11:33:16;;;;;;;3.42;1.48;;;;;;;;;;4991794;28;20046;-71
2022/09/05 11:36:23;;;;;;;4.65;1.30;;;;;;;;;;4991938;28;20034;-70
2022/09/05 11:39:30;;;;;;;4.03;1.45;;;;;;;;;;4991727;28;20482;-71
2022/09/05 11:42:38;;;;;;;4.00;1.30;;;;;;;;;;4991651;28;20042;-70
2022/09/05 11:45:42;;;;;;;2.72;1.27;;;;;;;;;;4991579;28;20042;-71
2022/09/05 11:48:46;;;;;;;2.65;1.40;;;;;;;;;;4991542;28;20137;-70
2022/09/05 11:51:57;;;;;;;3.63;1.58;;;;;;;;;;4991720;28;20498;-70
2022/09/05 11:55:21;;;;;;;3.50;1.50;;;;;;;;;;4992381;28;20042;-71
2022/09/05 11:58:47;;;;;;;6.78;1.40;;;;;;;;;;4991657;28;20042;-71
2022/09/05 12:02:07;;;;;;;2.28;1.30;;;;;;;;;;4991669;28;20042;-70
2022/09/05 12:05:30;;;;;;;3.83;1.27;;;;;;;;;;4991964;28;20042;-70
2022/09/05 12:08:45;;;;;;;4.00;2.20;;;;;;;;;;4991555;28;20054;-70
2022/09/05 12:12:08;;;;;;;7.05;1.50;;;;;;;;;;4991505;28;20038;-70
2022/09/05 12:15:32;;;;;;;3.25;1.60;;;;;;;;;;4991424;28;20046;-72
2022/09/05 12:18:44;;;;;;;2.85;1.48;;;;;;;;;;4991414;28;20491;-72
2022/09/05 12:22:07;;;;;;;3.50;1.25;;;;;;;;;;4991701;28;20038;-70
2022/09/05 12:25:17;;;;;;;5.32;1.67;;;;;;;;;;4991546;28;20039;-71
2022/09/05 12:28:32;;;;;;;1.77;1.30;;;;;;;;;;4991384;28;20490;-71
2022/09/05 12:31:39;;;;;;;3.45;1.52;;;;;;;;;;4991309;28;20038;-72
2022/09/05 12:34:50;;;;;;;6.53;2.17;;;;;;;;;;5002105;28;20455;-74
2022/09/05 12:38:12;;;;;;;3.83;1.50;;;;;;;;;;4991537;28;20038;-73
2022/09/05 12:41:19;;;;;;;3.63;1.30;;;;;;;;;;4991380;28;20502;-72
2022/09/05 12:44:29;;;;;;;4.90;1.45;;;;;;;;;;4991615;28;20038;-72
2022/09/05 12:47:46;;;;;;;4.43;1.58;;;;;;;;;;4991259;28;20042;-73
2022/09/05 12:50:56;;;;;;;2.30;1.52;;;;;;;;;;4991428;28;20046;-72
2022/09/05 12:54:04;;;;;;;1.95;1.17;;;;;;;;;;4991598;28;20046;-72
2022/09/05 12:57:26;;;;;;;3.00;1.20;;;;;;;;;;4991351;28;20038;-72
2022/09/05 13:00:40;;;;;;;4.25;1.65;;;;;;;;;;4991465;28;20034;-72
2022/09/05 13:04:05;;;;;;;2.65;1.38;;;;;;;;;;4991284;28;20356;-72
2022/09/05 13:07:12;;;;;;;5.20;1.27;;;;;;;;;;4990999;28;20039;-72
2022/09/05 13:10:22;;;;;;;3.85;1.40;;;;;;;;;;4990839;28;20486;-72
2022/09/05 13:13:36;;;;;;;2.43;1.47;;;;;;;;;;4989295;28;20363;-72
2022/09/05 13:16:45;;;;;;;3.17;1.40;;;;;;;;;;4990762;28;20042;-71
2022/09/05 13:19:50;;;;;;;2.15;1.30;;;;;;;;;;4990776;28;20038;-72
2022/09/05 13:22:54;;;;;;;3.75;1.40;;;;;;;;;;4991312;28;20371;-73
2022/09/05 13:25:59;;;;;;;3.80;1.15;;;;;;;;;;4994742;28;20042;-73
2022/09/05 13:29:10;;;;;;;4.00;1.20;;;;;;;;;;4994340;28;20046;-73
2022/09/05 13:32:16;;;;;;;6.15;1.30;;;;;;;;;;4994274;28;20609;-73
2022/09/05 13:35:27;;;;;;;3.17;1.17;;;;;;;;;;4994558;28;20042;-72
2022/09/05 13:38:31;;;;;;;;;;;;;;;;;;4994722;28;20042;-73
2022/09/05 13:41:36;;;;;;;2.38;1.33;;;;;;;;;;4994373;28;19917;-73
2022/09/05 13:44:45;;;;;;;1.88;1.08;;;;;;;;;;4994307;28;20399;-72
2022/09/05 13:47:49;;;;;;;1.20;1.00;;;;;;;;;;4994187;28;20042;-72
2022/09/05 13:50:58;;;;;;;4.00;1.10;;;;;;;;;;4994115;28;20038;-73
2022/09/05 13:54:06;;;;;;;2.40;1.10;;;;;;;;;;4993978;28;20186;-73
2022/09/05 13:57:19;;;;;;;3.17;1.52;;;;;;;;;;4994050;28;20034;-73
2022/09/05 14:00:27;;;;;;;1.95;1.17;;;;;;;;;;4993927;28;20034;-72
2022/09/05 14:03:31;;;;;;;2.42;1.23;;;;;;;;;;4993217;28;20471;-72
2022/09/05 14:06:41;;;;;;;4.55;1.33;;;;;;;;;;4994058;28;20034;-73
2022/09/05 14:10:12;;;;;;;4.80;1.92;;;;;;;;;;4993476;28;20050;-73
2022/09/05 14:13:24;;;;;;;5.07;1.40;;;;;;;;;;4993399;28;20038;-72
2022/09/05 14:16:32;;;;;;;3.33;1.42;;;;;;;;;;4993740;28;20038;-72
2022/09/05 14:23:07;;;;;;;3.88;1.52;;;;;;;;;;4974109;28;20058;-71
2022/09/05 14:26:20;;;;;;;3.67;1.58;;;;;;;;;;4974205;28;20035;-74
2022/09/05 14:29:31;;;;;;;4.40;1.75;;;;;;;;;;4973829;28;20050;-74
2022/09/05 14:32:56;;;;;;;4.32;2.22;;;;;;;;;;4973596;28;20034;-73
2022/09/05 14:36:03;;;;;;;8.02;1.55;;;;;;;;;;4973137;28;20038;-71
2022/09/05 14:39:07;;;;;;;5.55;1.50;;;;;;;;;;4973859;28;20039;-70
2022/09/05 14:42:25;;;;;;;5.18;1.80;;;;;;;;;;4973819;28;20043;-72
2022/09/05 14:45:39;;;;;;;3.55;1.63;;;;;;;;;;4973774;28;20043;-72
2022/09/05 14:48:50;;;;;;;3.22;1.38;;;;;;;;;;4973617;28;20038;-73
2022/09/05 14:51:55;;;;;;;2.80;1.48;;;;;;;;;;4978178;28;20039;-71
2022/09/05 14:55:01;;;;;;;2.50;1.40;;;;;;;;;;4973303;28;20054;-71
2022/09/05 14:58:05;;;;;;;2.70;1.77;;;;;;;;;;4973018;28;20039;-72
2022/09/05 15:01:11;;;;;;;2.95;1.70;;;;;;;;;;4973270;28;20038;-71
2022/09/05 15:04:18;;;;;;;3.80;1.42;;;;;;;;;;4973055;28;20039;-71
2022/09/05 15:07:25;;;;;;;4.55;1.77;;;;;;;;;;4973044;28;20039;-71
2022/09/05 15:10:32;;;;;;;2.05;1.70;;;;;;;;;;4973072;28;20038;-69
2022/09/05 15:13:42;;;;;;;6.20;2.15;;;;;;;;;;4973028;28;20034;-69
2022/09/05 15:16:57;;;;;;;2.85;1.60;;;;;;;;;;4974860;28;20376;-70
2022/09/05 15:20:05;;;;;;;2.63;1.55;;;;;;;;;;4992230;28;20054;-69
2022/09/05 15:23:14;;;;;;;4.07;1.70;;;;;;;;;;4991951;28;20043;-72
2022/09/05 15:26:19;;;;;;;3.40;1.80;;;;;;;;;;4992276;28;20348;-71
2022/09/05 15:29:25;;;;;;;3.35;1.33;;;;;;;;;;4990654;28;20050;-71
2022/09/05 15:32:30;;;;;;;2.97;1.58;;;;;;;;;;4991014;28;20035;-71
2022/09/05 15:35:36;;;;;;;10.32;2.05;;;;;;;;;;4991556;28;20067;-71
2022/09/05 15:38:42;;;;;;;5.95;1.63;;;;;;;;;;4991726;28;20034;-72
2022/09/05 15:41:46;;;;;;;3.20;1.80;;;;;;;;;;4991906;28;20348;-83
2022/09/05 15:44:59;;;;;;;4.53;1.92;;;;;;;;;;4991921;28;20379;-70
2022/09/05 15:48:05;;;;;;;7.00;2.33;;;;;;;;;;4990778;28;20046;-73
2022/09/05 15:51:17;;;;;;;6.57;2.80;;;;;;;;;;4991414;28;20042;-69
2022/09/05 15:54:31;;;;;;;6.80;2.35;;;;;;;;;;4991717;28;20371;-71
2022/09/05 15:57:37;;;;;;;6.90;2.28;;;;;;;;;;4991768;28;20046;-69
2022/09/05 16:00:45;;;;;;;7.43;3.30;;;;;;;;;;4990143;28;20376;-69
2022/09/05 16:03:49;;;;;;;6.65;2.70;;;;;;;;;;4989462;28;20042;-69
2022/09/05 16:06:56;;;;;;;4.05;1.83;;;;;;;;;;4990101;28;20042;-69
2022/09/05 16:10:01;;;;;;;6.00;3.17;;;;;;;;;;4990789;28;20379;-69
2022/09/05 16:13:13;;;;;;;5.20;2.28;;;;;;;;;;4990861;28;20038;-71
2022/09/05 16:16:17;;;;;;;4.20;2.15;;;;;;;;;;4990200;28;20042;-75
2022/09/05 16:19:26;;;;;;;6.97;2.20;;;;;;;;;;4990999;28;20650;-72
2022/09/05 16:22:38;;;;;;;5.65;2.35;;;;;;;;;;4991086;28;20046;-71
2022/09/05 16:25:46;;;;;;;7.70;2.70;;;;;;;;;;4991114;28;20030;-70
2022/09/05 16:29:01;;;;;;;6.72;2.42;;;;;;;;;;4991250;28;20050;-72
2022/09/05 16:32:09;;;;;;;5.47;2.75;;;;;;;;;;4991178;28;20038;-72
2022/09/05 16:35:16;;;;;;;8.70;3.15;;;;;;;;;;4991128;28;20043;-72
2022/09/05 16:38:25;;;;;;;5.13;2.50;;;;;;;;;;4990373;28;20035;-73
2022/09/05 16:41:29;;;;;;;8.68;3.88;;;;;;;;;;4991058;28;20042;-72
2022/09/05 16:44:44;;;;;;;5.95;2.78;;;;;;;;;;4991299;28;20030;-72
2022/09/05 16:47:51;;;;;;;6.38;2.70;;;;;;;;;;4990627;28;20050;-72
2022/09/05 16:51:09;;;;;;;6.85;2.60;;;;;;;;;;4990705;28;20511;-72
2022/09/05 16:54:33;;;;;;;4.07;2.72;;;;;;;;;;4990727;28;20371;-73
2022/09/05 16:57:40;;;;;;;6.63;2.60;;;;;;;;;;4990345;28;20054;-73
2022/09/05 17:00:55;;;;;;;6.50;2.92;;;;;;;;;;4994712;28;20034;-73
2022/09/05 17:04:08;;;;;;;9.65;2.38;;;;;;;;;;4994643;28;20039;-73
2022/09/05 17:07:16;;;;;;;4.50;2.25;;;;;;;;;;4994538;28;20046;-74
2022/09/05 17:10:30;;;;;;;7.28;2.90;;;;;;;;;;4994289;28;20050;-74
2022/09/05 17:13:43;;;;;;;7.50;2.50;;;;;;;;;;4994720;28;20046;-73
2022/09/05 17:16:54;;;;;;;5.80;2.50;;;;;;;;;;4994411;28;20510;-75
2022/09/05 17:19:59;;;;;;;7.72;2.65;;;;;;;;;;4993923;28;20046;-73
2022/09/05 17:23:15;;;;;;;10.23;2.22;;;;;;;;;;4992956;28;20384;-73
2022/09/05 17:26:39;;;;;;;6.68;2.30;;;;;;;;;;4992262;28;20030;-73
2022/09/05 17:29:55;;;;;;;6.25;2.72;;;;;;;;;;4991136;28;20039;-72
2022/09/05 17:32:59;;;;;;;11.18;2.42;;;;;;;;;;4992426;28;20034;-72
2022/09/05 17:36:13;;;;;;;5.72;2.35;;;;;;;;;;4992144;28;20054;-72
2022/09/05 17:39:21;;;;;;;11.15;2.70;;;;;;;;;;4991937;28;20482;-72
2022/09/05 17:42:39;;;;;;;6.15;2.38;;;;;;;;;;4994335;28;20046;-72
2022/09/05 17:46:08;;;;;;;6.75;2.95;;;;;;;;;;4994268;28;20038;-72
2022/09/05 17:49:35;;;;;;;7.40;2.90;;;;;;;;;;4993042;28;20050;-72
2022/09/05 17:52:58;;;;;;;7.13;2.47;;;;;;;;;;4994253;28;20034;-72
2022/09/05 17:56:10;;;;;;;10.15;3.33;;;;;;;;;;4993633;28;20042;-72
2022/09/05 17:59:18;;;;;;;6.70;3.28;;;;;;;;;;4994080;28;20057;-72
2022/09/05 18:02:23;;;;;;;8.15;2.75;;;;;;;;;;4993868;28;20034;-72
2022/09/05 18:05:46;;;;;;;12.35;4.22;;;;;;;;;;4993786;28;20038;-72
2022/09/05 18:08:51;;;;;;;8.60;3.28;;;;;;;;;;5004598;28;20042;-72
2022/09/05 18:12:07;;;;;;;12.93;2.95;;;;;;;;;;4992683;28;20034;-72
2022/09/05 18:15:37;;;;;;;8.10;3.40;;;;;;;;;;4994212;28;20418;-72
2022/09/05 18:18:41;;;;;;;7.13;4.32;;;;;;;;;;5003556;28;20054;-72
2022/09/05 18:21:47;;;;;;;13.20;4.40;;;;;;;;;;4993809;28;20375;-72
2022/09/05 18:25:11;;;;;;;11.57;4.30;;;;;;;;;;4993369;28;20038;-72
2022/09/05 18:28:19;;;;;;;11.82;4.53;;;;;;;;;;4993255;28;20038;-73
2022/09/05 18:31:41;;;;;;;13.30;4.68;;;;;;;;;;4992737;28;20046;-72
2022/09/05 18:35:06;;;;;;;13.68;5.78;;;;;;;;;;4991664;28;20037;-72
2022/09/05 18:38:15;;;;;;;9.90;4.72;;;;;;;;;;4992924;28;20046;-72
2022/09/05 18:41:26;;;;;;;9.60;3.80;;;;;;;;;;4992791;28;20046;-72
2022/09/05 18:44:35;;;;;;;10.32;4.30;;;;;;;;;;4991743;28;20034;-72
2022/09/05 18:47:41;;;;;;;28.95;6.50;;;;;;;;;;4993075;28;20043;-72
2022/09/05 18:50:45;;;;;;;16.70;4.72;;;;;;;;;;5003261;28;20521;-72
2022/09/05 18:53:50;;;;;;;13.73;5.10;;;;;;;;;;4992437;28;20053;-72
2022/09/05 18:56:55;;;;;;;15.95;5.00;;;;;;;;;;5003525;28;20047;-72
2022/09/05 19:00:07;;;;;;;15.35;4.05;;;;;;;;;;5003377;28;20505;-72
2022/09/05 19:03:23;;;;;;;12.60;4.30;;;;;;;;;;5003125;28;20505;-72
2022/09/05 19:06:30;;;;;;;14.52;5.28;;;;;;;;;;5002833;28;20049;-72
2022/09/05 19:09:36;;;;;;;11.10;4.55;;;;;;;;;;4992399;28;20050;-72